createdAt,value
2022-09-23T00:01:00.311Z,385.63
2022-09-23T00:03:28.595Z,451.88
2022-09-23T00:06:02.715Z,484.00
2022-09-23T00:08:30.112Z,487.45
2022-09-23T00:11:07.369Z,509.20
2022-09-23T00:13:35.640Z,432.38
2022-09-23T00:16:04.441Z,490.48
2022-09-23T00:18:31.555Z,416.70
2022-09-23T00:20:58.648Z,420.52
2022-09-23T00:23:25.798Z,507.70
2022-09-23T00:25:56.769Z,514.70
2022-09-23T00:28:24.544Z,495.90
2022-09-23T00:30:51.777Z,488.13
2022-09-23T00:33:18.882Z,505.38
2022-09-23T00:35:46.047Z,535.08
2022-09-23T00:38:14.197Z,478.33
2022-09-23T00:40:47.006Z,522.80
2022-09-23T00:43:17.819Z,519.78
2022-09-23T00:45:47.969Z,464.27
2022-09-23T00:48:20.057Z,426.42
2022-09-23T00:50:50.309Z,454.35
2022-09-23T00:53:19.891Z,374.40
2022-09-23T00:55:48.766Z,432.83
2022-09-23T00:58:17.779Z,396.80
2022-09-23T01:00:46.768Z,429.73
2022-09-23T01:03:14.270Z,459.73
2022-09-23T01:05:42.225Z,484.30
2022-09-23T01:08:11.271Z,521.05
2022-09-23T01:10:58.604Z,516.38
2022-09-23T01:13:25.762Z,490.58
2022-09-23T01:16:16.614Z,504.38
2022-09-23T01:18:53.183Z,402.37
2022-09-23T01:21:29.886Z,417.65
2022-09-23T01:23:56.933Z,451.33
2022-09-23T01:26:34.235Z,455.08
2022-09-23T01:29:27.426Z,516.38
2022-09-23T01:31:57.316Z,512.90
2022-09-23T01:34:34.696Z,505.23
2022-09-23T01:37:20.856Z,432.27
2022-09-23T01:39:57.001Z,496.38
2022-09-23T01:42:24.067Z,516.83
2022-09-23T01:44:57.924Z,525.80
2022-09-23T01:47:28.531Z,558.08
2022-09-23T01:50:25.929Z,485.37
2022-09-23T01:52:55.190Z,551.55
2022-09-23T01:55:42.496Z,559.60
2022-09-23T01:58:35.755Z,438.38
2022-09-23T02:01:05.023Z,476.48
2022-09-23T02:03:35.802Z,513.17
2022-09-23T02:06:15.086Z,408.17
2022-09-23T02:08:47.722Z,431.60
2022-09-23T02:11:15.976Z,428.95
2022-09-23T02:13:46.090Z,513.33
2022-09-23T02:16:22.376Z,503.02
2022-09-23T02:19:00.205Z,476.27
2022-09-23T02:21:30.319Z,422.63
2022-09-23T02:24:02.239Z,488.98
2022-09-23T02:26:29.533Z,420.98
2022-09-23T02:29:02.050Z,463.65
2022-09-23T02:31:48.934Z,457.88
2022-09-23T02:34:34.732Z,533.28
2022-09-23T02:37:04.786Z,513.25
2022-09-23T02:39:38.760Z,514.22
2022-09-23T02:42:07.978Z,479.10
2022-09-23T02:44:35.290Z,509.48
2022-09-23T02:47:02.454Z,513.95
2022-09-23T02:49:30.376Z,489.15
2022-09-23T02:51:58.415Z,432.77
2022-09-23T02:54:27.912Z,493.25
2022-09-23T02:56:55.243Z,510.60
2022-09-23T02:59:23.575Z,447.45
2022-09-23T03:02:05.036Z,460.95
2022-09-23T03:04:50.998Z,471.92
2022-09-23T03:07:20.291Z,396.88
2022-09-23T03:09:58.128Z,487.02
2022-09-23T03:12:43.499Z,494.20
2022-09-23T03:15:10.910Z,526.78
2022-09-23T03:17:52.183Z,545.55
2022-09-23T03:20:34.706Z,586.50
2022-09-23T03:23:08.156Z,631.88
2022-09-23T03:25:38.070Z,556.97
2022-09-23T03:28:05.717Z,574.92
2022-09-23T03:30:35.666Z,571.63
2022-09-23T03:33:04.680Z,609.85
2022-09-23T03:35:33.808Z,573.70
2022-09-23T03:38:12.121Z,539.00
2022-09-23T03:40:41.931Z,527.22
2022-09-23T03:43:09.798Z,381.13
2022-09-23T03:45:36.884Z,487.25
2022-09-23T03:48:04.399Z,514.70
2022-09-23T03:50:31.501Z,550.05
2022-09-23T03:52:59.279Z,441.88
2022-09-23T03:55:26.375Z,470.30
2022-09-23T03:57:53.631Z,487.05
2022-09-23T04:00:20.790Z,364.45
2022-09-23T04:02:49.743Z,425.95
2022-09-23T04:05:17.879Z,477.33
2022-09-23T04:07:45.249Z,479.55
2022-09-23T04:10:12.363Z,452.25
2022-09-23T04:12:39.566Z,446.73
2022-09-23T04:15:07.061Z,417.50
2022-09-23T04:17:34.262Z,454.30
2022-09-23T04:20:01.446Z,453.10
2022-09-23T04:22:28.744Z,496.13
2022-09-23T04:24:56.182Z,381.73
2022-09-23T04:27:23.354Z,374.52
2022-09-23T04:29:50.459Z,439.10
2022-09-23T04:32:17.758Z,443.88
2022-09-23T04:34:44.850Z,468.02
2022-09-23T04:37:11.935Z,468.63
2022-09-23T04:39:39.019Z,477.08
2022-09-23T04:42:06.212Z,472.48
2022-09-23T04:44:34.084Z,462.50
2022-09-23T04:47:01.227Z,396.00
2022-09-23T04:49:32.375Z,440.92
2022-09-23T04:51:59.459Z,456.95
2022-09-23T04:54:27.154Z,416.80
2022-09-23T04:56:54.288Z,466.58
2022-09-23T04:59:21.371Z,418.75
2022-09-23T05:01:48.539Z,300.10
2022-09-23T05:04:15.803Z,321.08
2022-09-23T05:06:45.335Z,367.33
2022-09-23T05:09:16.137Z,401.42
2022-09-23T05:11:43.606Z,409.00
2022-09-23T05:14:10.757Z,414.50
2022-09-23T05:16:37.949Z,417.52
2022-09-23T05:19:05.522Z,458.40
2022-09-23T05:21:32.769Z,433.15
2022-09-23T05:24:00.761Z,409.10
2022-09-23T05:26:29.513Z,349.38
2022-09-23T05:28:56.975Z,308.42
2022-09-23T05:31:24.954Z,356.02
2022-09-23T05:33:53.057Z,294.63
2022-09-23T05:36:23.399Z,337.30
2022-09-23T05:38:51.502Z,338.98
2022-09-23T05:41:19.566Z,331.52
2022-09-23T05:43:47.333Z,371.20
2022-09-23T05:46:15.603Z,377.13
2022-09-23T05:48:44.052Z,408.05
2022-09-23T05:51:14.695Z,413.50
2022-09-23T05:53:44.838Z,319.63
2022-09-23T05:56:12.961Z,349.50
2022-09-23T05:58:40.445Z,346.15
2022-09-23T06:01:11.518Z,356.35
2022-09-23T06:03:39.280Z,357.00
2022-09-23T06:06:07.071Z,313.85
2022-09-23T06:08:34.529Z,289.50
2022-09-23T06:11:07.248Z,292.85
2022-09-23T06:13:38.344Z,299.30
2022-09-23T06:16:08.042Z,366.00
2022-09-23T06:18:35.739Z,371.98
2022-09-23T06:21:03.058Z,401.20
2022-09-23T06:23:30.817Z,342.73
2022-09-23T06:26:08.014Z,365.63
2022-09-23T06:28:37.377Z,360.02
2022-09-23T06:31:09.628Z,356.40
2022-09-23T06:33:39.429Z,305.23
2022-09-23T06:36:07.293Z,295.90
2022-09-23T06:38:34.623Z,309.13
2022-09-23T06:41:03.092Z,332.73
2022-09-23T06:43:30.592Z,270.27
2022-09-23T06:45:58.680Z,293.33
2022-09-23T06:48:26.195Z,310.15
2022-09-23T06:50:57.906Z,319.23
2022-09-23T06:53:24.980Z,237.07
2022-09-23T06:56:06.112Z,258.40
2022-09-23T06:58:33.932Z,256.17
2022-09-23T07:01:02.405Z,289.98
2022-09-23T07:03:30.853Z,308.85
2022-09-23T07:05:58.588Z,247.07
2022-09-23T07:08:27.152Z,288.00
2022-09-23T07:10:55.016Z,204.05
2022-09-23T07:13:22.083Z,197.80
2022-09-23T07:15:52.814Z,190.10
2022-09-23T07:18:20.661Z,209.13
2022-09-23T07:20:48.284Z,236.60
2022-09-23T07:23:15.380Z,208.23
2022-09-23T07:25:42.849Z,251.15
2022-09-23T07:28:10.198Z,277.75
2022-09-23T07:30:38.729Z,227.35
2022-09-23T07:33:21.653Z,201.75
2022-09-23T07:35:54.086Z,216.82
2022-09-23T07:38:24.653Z,207.50
2022-09-23T07:40:52.114Z,172.97
2022-09-23T07:43:19.205Z,144.18
2022-09-23T07:45:47.055Z,173.00
2022-09-23T07:48:14.114Z,200.18
2022-09-23T07:50:41.224Z,197.73
2022-09-23T07:53:08.498Z,174.02
2022-09-23T07:55:35.777Z,177.40
2022-09-23T07:58:02.940Z,125.68
2022-09-23T08:00:30.052Z,145.07
2022-09-23T08:02:57.156Z,120.72
2022-09-23T08:05:25.290Z,119.22
2022-09-23T08:07:52.394Z,130.75
2022-09-23T08:10:20.729Z,139.05
2022-09-23T08:12:48.880Z,106.70
2022-09-23T08:15:17.494Z,92.18
2022-09-23T08:17:44.882Z,107.15
2022-09-23T08:20:31.975Z,100.13
2022-09-23T08:22:59.076Z,89.93
2022-09-23T08:25:26.130Z,61.80
2022-09-23T08:27:53.199Z,79.47
2022-09-23T08:30:20.276Z,69.55
2022-09-23T08:32:50.739Z,68.45
2022-09-23T08:35:18.126Z,67.63
2022-09-23T08:37:45.256Z,65.88
2022-09-23T08:40:12.381Z,80.53
2022-09-23T08:42:40.800Z,94.25
2022-09-23T08:45:08.571Z,78.15
2022-09-23T08:47:47.893Z,121.75
2022-09-23T08:50:20.445Z,100.07
2022-09-23T08:52:52.798Z,153.93
2022-09-23T08:55:20.209Z,188.40
2022-09-23T08:58:02.279Z,176.85
2022-09-23T09:00:41.608Z,163.57
2022-09-23T09:03:18.839Z,213.38
2022-09-23T09:05:53.989Z,150.52
2022-09-23T09:08:27.703Z,234.73
2022-09-23T09:10:55.641Z,164.10
2022-09-23T09:13:25.763Z,172.13
2022-09-23T09:15:59.845Z,132.77
2022-09-23T09:18:27.773Z,134.60
2022-09-23T09:20:57.170Z,124.47
2022-09-23T09:23:27.171Z,141.57
2022-09-23T09:25:59.614Z,97.70
2022-09-23T09:28:31.052Z,115.47
2022-09-23T09:31:00.572Z,130.73
2022-09-23T09:33:40.820Z,152.38
2022-09-23T09:36:11.593Z,112.32
2022-09-23T09:38:38.767Z,335.52
2022-09-23T09:41:14.397Z,325.48
2022-09-23T09:43:44.140Z,82.75
2022-09-23T09:46:24.365Z,119.78
2022-09-23T09:49:11.722Z,355.17
2022-09-23T09:51:42.466Z,354.15
2022-09-23T09:54:26.717Z,319.95
2022-09-23T09:56:53.945Z,367.77
2022-09-23T09:59:28.275Z,394.92
2022-09-23T10:02:14.831Z,409.52
2022-09-23T10:04:42.020Z,372.92
2022-09-23T10:07:16.076Z,345.83
2022-09-23T10:09:50.500Z,285.90
2022-09-23T10:12:18.566Z,233.32
2022-09-23T10:14:53.101Z,351.25
2022-09-23T10:17:24.430Z,300.13
2022-09-23T10:20:00.249Z,232.30
2022-09-23T10:22:29.928Z,321.73
2022-09-23T10:24:59.079Z,230.95
2022-09-23T10:27:27.834Z,231.55
2022-09-23T10:29:56.833Z,218.55
2022-09-23T10:32:25.575Z,363.00
2022-09-23T10:34:54.681Z,446.15
2022-09-23T10:37:26.190Z,814.15
2022-09-23T10:40:12.053Z,567.63
2022-09-23T10:43:12.906Z,851.97
2022-09-23T10:45:59.568Z,649.38
2022-09-23T10:48:53.102Z,812.17
2022-09-23T10:51:39.551Z,815.22
2022-09-23T10:54:21.565Z,892.10
2022-09-23T10:57:36.329Z,826.47
2022-09-23T11:00:05.268Z,1000.92
2022-09-23T11:02:41.419Z,1568.85
2022-09-23T11:05:27.117Z,1640.68
2022-09-23T11:08:07.462Z,1681.60
2022-09-23T11:10:47.668Z,527.87
2022-09-23T11:13:24.478Z,449.83
2022-09-23T11:15:54.432Z,511.40
2022-09-23T11:18:32.891Z,600.22
2022-09-23T11:21:00.003Z,636.70
2022-09-23T11:23:54.245Z,762.25
2022-09-23T11:26:32.834Z,745.38
2022-09-23T11:29:00.535Z,741.25
2022-09-23T11:31:31.036Z,754.88
2022-09-23T11:34:07.776Z,760.53
2022-09-23T11:36:37.220Z,840.83
2022-09-23T11:39:21.570Z,801.70
2022-09-23T11:41:50.439Z,792.50
2022-09-23T11:44:32.682Z,895.70
2022-09-23T11:47:05.352Z,895.35
2022-09-23T11:49:35.793Z,847.45
2022-09-23T11:52:19.707Z,802.10
2022-09-23T11:54:52.093Z,680.28
2022-09-23T11:57:41.071Z,783.92
2022-09-23T12:00:17.883Z,757.90
2022-09-23T12:02:49.369Z,707.42
2022-09-23T12:05:29.157Z,791.80
2022-09-23T12:08:05.817Z,831.28
2022-09-23T12:10:54.179Z,708.20
2022-09-23T12:13:24.356Z,864.28
2022-09-23T12:15:54.450Z,807.95
2022-09-23T12:18:33.003Z,746.95
2022-09-23T12:21:39.091Z,768.00
2022-09-23T12:24:20.530Z,933.30
2022-09-23T12:26:51.201Z,925.03
2022-09-23T12:29:18.409Z,1005.78
2022-09-23T12:31:46.888Z,930.72
2022-09-23T12:34:37.704Z,957.70
2022-09-23T12:37:05.524Z,974.22
2022-09-23T12:39:34.560Z,831.25
2022-09-23T12:42:03.738Z,711.83
2022-09-23T12:44:41.807Z,707.08
2022-09-23T12:47:21.062Z,776.75
2022-09-23T12:49:50.720Z,880.83
2022-09-23T12:52:17.830Z,800.55
2022-09-23T12:54:49.179Z,747.67
2022-09-23T12:59:53.534Z,782.80
2022-09-23T13:02:29.264Z,804.13
2022-09-23T13:05:27.134Z,810.38
2022-09-23T13:08:03.727Z,857.75
2022-09-23T13:10:38.405Z,897.25
2022-09-23T13:13:06.878Z,920.90
2022-09-23T13:15:35.295Z,895.05
2022-09-23T13:18:20.610Z,923.67
2022-09-23T13:20:51.565Z,841.42
2022-09-23T13:23:25.800Z,916.53
2022-09-23T13:25:54.878Z,897.47
2022-09-23T13:28:24.788Z,798.50
2022-09-23T13:30:52.213Z,704.42
2022-09-23T13:33:34.591Z,743.25
2022-09-23T13:36:04.031Z,761.42
2022-09-23T13:38:32.652Z,790.55
2022-09-23T13:41:01.969Z,831.42
2022-09-23T13:43:36.518Z,852.70
2022-09-23T13:46:13.352Z,646.78
2022-09-23T13:48:41.507Z,720.67
2022-09-23T13:51:12.807Z,732.67
2022-09-23T13:56:07.046Z,856.05
2022-09-23T13:58:35.047Z,783.22
2022-09-23T14:01:02.273Z,615.42
2022-09-23T14:03:35.870Z,674.75
2022-09-23T14:06:11.801Z,682.65
2022-09-23T14:08:49.701Z,775.55
2022-09-23T14:11:21.033Z,683.97
2022-09-23T14:16:16.256Z,740.03
2022-09-23T14:18:47.724Z,640.13
2022-09-23T14:21:34.863Z,696.67
2022-09-23T14:24:10.906Z,620.15
2022-09-23T14:26:38.658Z,676.80
2022-09-23T14:29:06.710Z,706.85
2022-09-23T14:31:33.895Z,795.92
2022-09-23T14:34:00.979Z,686.97
2022-09-23T14:36:46.913Z,747.25
2022-09-23T14:39:14.037Z,830.47
2022-09-23T14:41:43.787Z,833.28
2022-09-23T14:44:38.151Z,722.42
2022-09-23T14:47:11.621Z,787.00
2022-09-23T14:49:59.308Z,777.88
2022-09-23T14:52:26.369Z,778.58
2022-09-23T14:54:53.448Z,799.28
2022-09-23T14:57:23.345Z,854.65
2022-09-23T15:00:10.869Z,833.67
2022-09-23T15:02:39.253Z,594.55
2022-09-23T15:05:22.918Z,578.00
2022-09-23T15:07:51.546Z,675.10
2022-09-23T15:10:23.580Z,682.20
2022-09-23T15:12:52.314Z,766.75
2022-09-23T15:15:19.670Z,795.63
2022-09-23T15:17:47.397Z,814.63
2022-09-23T15:20:17.573Z,865.53
2022-09-23T15:22:45.196Z,717.33
2022-09-23T15:25:32.019Z,736.13
2022-09-23T15:28:04.224Z,686.30
2022-09-23T15:30:31.963Z,739.58
2022-09-23T15:32:59.876Z,726.28
2022-09-23T15:35:27.402Z,771.03
2022-09-23T15:37:58.155Z,844.22
2022-09-23T15:40:26.562Z,1051.40
2022-09-23T15:42:58.339Z,1057.90
2022-09-23T15:45:49.401Z,1147.20
2022-09-23T15:48:22.559Z,805.33
2022-09-23T15:50:50.566Z,725.75
2022-09-23T15:53:21.951Z,917.72
2022-09-23T15:55:52.165Z,750.28
2022-09-23T15:58:20.418Z,819.17
2022-09-23T16:00:56.080Z,825.92
2022-09-23T16:03:28.300Z,869.42
2022-09-23T16:05:58.046Z,716.55
2022-09-23T16:08:25.729Z,852.55
2022-09-23T16:10:54.780Z,987.75
2022-09-23T16:13:22.909Z,1153.38
2022-09-23T16:15:50.067Z,1143.00
2022-09-23T16:18:17.223Z,1098.22
2022-09-23T16:20:45.623Z,860.65
2022-09-23T16:23:35.134Z,783.38
2022-09-23T16:26:07.536Z,891.20
2022-09-23T16:28:34.708Z,730.78
2022-09-23T16:31:01.846Z,816.22
2022-09-23T16:33:28.921Z,892.10
2022-09-23T16:35:56.245Z,931.75
2022-09-23T16:38:23.391Z,1059.10
2022-09-23T16:40:50.582Z,1115.32
2022-09-23T16:43:17.778Z,1249.05
2022-09-23T16:45:45.909Z,834.58
2022-09-23T16:48:13.613Z,791.10
2022-09-23T16:50:42.626Z,905.50
2022-09-23T16:53:09.911Z,721.45
2022-09-23T16:55:37.720Z,833.63
2022-09-23T16:58:04.868Z,870.75
2022-09-23T17:00:50.719Z,875.83
2022-09-23T17:03:36.865Z,992.97
2022-09-23T17:06:07.965Z,1046.15
2022-09-23T17:08:35.482Z,1118.82
2022-09-23T17:11:03.041Z,1128.45
2022-09-23T17:13:31.181Z,1241.78
2022-09-23T17:15:58.573Z,1283.45
2022-09-23T17:18:25.781Z,954.35
2022-09-23T17:21:00.314Z,1045.47
2022-09-23T17:23:28.309Z,1138.80
2022-09-23T17:25:55.529Z,907.50
2022-09-23T17:28:22.749Z,1081.80
2022-09-23T17:30:57.693Z,1245.10
2022-09-23T17:33:25.389Z,1259.20
2022-09-23T17:35:52.969Z,1056.00
2022-09-23T17:38:20.162Z,1244.47
2022-09-23T17:40:54.161Z,1229.82
2022-09-23T17:43:25.867Z,1292.88
2022-09-23T17:45:54.475Z,1407.97
2022-09-23T17:48:22.607Z,1484.93
2022-09-23T17:51:01.016Z,1560.07
2022-09-23T17:53:30.103Z,1571.47
2022-09-23T17:55:58.452Z,1196.75
2022-09-23T17:58:29.593Z,1102.88
2022-09-23T18:00:57.358Z,1317.57
2022-09-23T18:03:25.649Z,1175.25
2022-09-23T18:05:53.084Z,1362.57
2022-09-23T18:08:20.408Z,1285.72
2022-09-23T18:10:48.103Z,1512.18
2022-09-23T18:13:15.535Z,1675.47
2022-09-23T18:15:42.921Z,1436.25
2022-09-23T18:18:10.140Z,1800.07
2022-09-23T18:20:37.445Z,1968.47
2022-09-23T18:23:04.671Z,1882.50
2022-09-23T18:25:40.903Z,1692.32
2022-09-23T18:28:08.111Z,1616.78
2022-09-23T18:30:35.334Z,1889.88
2022-09-23T18:33:03.395Z,1999.90
2022-09-23T18:35:30.918Z,1859.22
2022-09-23T18:37:58.171Z,1969.70
2022-09-23T18:40:25.395Z,1999.90
2022-09-23T18:42:52.650Z,1999.90
2022-09-23T18:45:19.970Z,1999.90
2022-09-23T18:48:06.087Z,1711.95
2022-09-23T18:50:39.534Z,1999.90
2022-09-23T18:53:07.617Z,1999.90
2022-09-23T18:55:35.554Z,1999.90
2022-09-23T18:58:03.292Z,1999.90
2022-09-23T19:00:30.552Z,1999.90
2022-09-23T19:02:57.852Z,1999.90
2022-09-23T19:05:25.087Z,1897.93
2022-09-23T19:07:52.333Z,1716.90
2022-09-23T19:10:19.891Z,1613.88
2022-09-23T19:12:47.206Z,1999.90
2022-09-23T19:15:14.448Z,1999.90
2022-09-23T19:17:41.730Z,1999.90
2022-09-23T19:20:10.100Z,1999.90
2022-09-23T19:22:37.324Z,1999.90
2022-09-23T19:25:04.631Z,1999.90
2022-09-23T19:27:31.886Z,1999.90
2022-09-23T19:29:59.842Z,1999.90
2022-09-23T19:32:27.083Z,1999.90
2022-09-23T19:34:54.374Z,1999.90
2022-09-23T19:37:21.625Z,1999.90
2022-09-23T19:39:49.570Z,1999.90
2022-09-23T19:42:17.175Z,1971.45
2022-09-23T19:44:44.417Z,1962.75
2022-09-23T19:47:15.627Z,1999.90
2022-09-23T19:49:42.990Z,1999.90
2022-09-23T19:52:10.213Z,1988.75
2022-09-23T19:54:37.697Z,1999.90
2022-09-23T19:57:04.881Z,1769.90
2022-09-23T19:59:32.773Z,1860.90
2022-09-23T20:02:00.168Z,1930.38
2022-09-23T20:04:27.523Z,1999.00
2022-09-23T20:06:54.775Z,1999.90
2022-09-23T20:09:22.041Z,1894.47
2022-09-23T20:11:49.658Z,1999.90
2022-09-23T20:14:17.281Z,1999.90
2022-09-23T20:16:45.543Z,1766.13
2022-09-23T20:19:13.975Z,1752.65
2022-09-23T20:21:41.142Z,1866.20
2022-09-23T20:24:09.605Z,1957.63
2022-09-23T20:26:55.533Z,1999.90
2022-09-23T20:29:22.625Z,1999.90
2022-09-23T20:31:49.833Z,1767.10
2022-09-23T20:34:16.955Z,1788.25
2022-09-23T20:36:44.238Z,1999.90
2022-09-23T20:39:11.391Z,1999.90
2022-09-23T20:41:39.278Z,1999.90
2022-09-23T20:44:10.491Z,1999.90
2022-09-23T20:46:38.816Z,1999.90
2022-09-23T20:49:08.697Z,1999.90
2022-09-23T20:51:36.365Z,1999.90
2022-09-23T20:54:03.634Z,1999.90
2022-09-23T20:56:31.035Z,1999.90
2022-09-23T20:59:01.926Z,1999.90
2022-09-23T21:01:29.288Z,1999.90
2022-09-23T21:03:56.475Z,1999.90
2022-09-23T21:06:26.846Z,1999.90
2022-09-23T21:08:54.943Z,1999.90
2022-09-23T21:11:22.488Z,1999.90
2022-09-23T21:13:50.732Z,1999.90
2022-09-23T21:16:19.219Z,1999.68
2022-09-23T21:18:47.569Z,1991.07
2022-09-23T21:21:14.985Z,1870.55
2022-09-23T21:23:43.361Z,1999.90
2022-09-23T21:26:12.068Z,1999.90
2022-09-23T21:28:40.487Z,1999.90
2022-09-23T21:31:09.323Z,1980.60
2022-09-23T21:33:37.423Z,1990.50
2022-09-23T21:36:08.044Z,1999.90
2022-09-23T21:38:35.883Z,1998.40
2022-09-23T21:41:04.825Z,1999.90
2022-09-23T21:43:33.611Z,1904.95
2022-09-23T21:46:02.323Z,1999.90
2022-09-23T21:48:30.903Z,1999.90
2022-09-23T21:51:02.329Z,1999.90
2022-09-23T21:53:30.916Z,1999.90
2022-09-23T21:56:03.386Z,1999.90
2022-09-23T21:58:31.667Z,1999.90
2022-09-23T22:00:59.246Z,1999.90
2022-09-23T22:03:26.490Z,1999.90
2022-09-23T22:06:05.681Z,1999.90
2022-09-23T22:08:37.024Z,1999.90
2022-09-23T22:11:05.643Z,1999.90
2022-09-23T22:13:32.778Z,1999.90
2022-09-23T22:16:01.468Z,1999.90
2022-09-23T22:18:28.771Z,1999.90
2022-09-23T22:20:57.762Z,1999.90
2022-09-23T22:23:25.020Z,1999.90
2022-09-23T22:26:03.062Z,1999.90
2022-09-23T22:28:51.168Z,1999.90
2022-09-23T22:31:37.275Z,1999.90
2022-09-23T22:34:04.571Z,1999.90
2022-09-23T22:36:31.729Z,1999.90
2022-09-23T22:39:00.558Z,1999.90
2022-09-23T22:41:27.667Z,1999.90
2022-09-23T22:43:54.748Z,1999.90
2022-09-23T22:46:22.654Z,1999.90
2022-09-23T22:48:53.441Z,1999.90
2022-09-23T22:51:22.247Z,1995.63
2022-09-23T22:53:49.999Z,1999.90
2022-09-23T22:56:17.112Z,1999.90
2022-09-23T22:58:44.690Z,1999.90
2022-09-23T23:01:11.848Z,1999.90
2022-09-23T23:03:40.340Z,1999.90
2022-09-23T23:06:08.247Z,1999.90
2022-09-23T23:08:36.068Z,1999.90
2022-09-23T23:11:09.973Z,1999.90
2022-09-23T23:13:37.752Z,1955.63
2022-09-23T23:16:06.365Z,1999.90
2022-09-23T23:18:35.468Z,1884.60
2022-09-23T23:21:07.147Z,1928.53
2022-09-23T23:26:09.672Z,1999.90
2022-09-23T23:28:37.133Z,1999.90
2022-09-23T23:31:05.222Z,1994.03
2022-09-23T23:33:32.388Z,1999.90
2022-09-23T23:35:59.518Z,1979.50
2022-09-23T23:38:26.885Z,1999.90
2022-09-23T23:40:56.337Z,1999.90
2022-09-23T23:43:23.931Z,1893.07
2022-09-23T23:45:51.915Z,1999.90
2022-09-23T23:48:19.776Z,1858.90
2022-09-23T23:50:56.906Z,1941.53
2022-09-23T23:53:24.617Z,1827.43
2022-09-23T23:55:52.446Z,1860.63
2022-09-23T23:58:19.629Z,1916.57
